Time;durP1;ratioP1;P1;durP2;ratioP2;P2;SDS_P1;SDS_P2;PMS_P1;PMS_P2;Temp;Humidity;BMP_temperature;BMP_pressure;BME280_temperature;BME280_humidity;BME280_pressure;Samples;Min_cycle;Max_cycle;Signal;HPM_P1;HPM_P2
2022/05/04 00:00:28;;;;;;;;;;;9.60;99.90;;;;;;5033991;28;20321;-78
2022/05/04 00:02:55;;;;;;;;;;;9.60;99.90;;;;;;5037234;28;20435;-78
2022/05/04 00:05:22;;;;;;;;;;;9.50;99.90;;;;;;5047088;28;20308;-79
2022/05/04 00:07:49;;;;;;;;;;;9.50;99.90;;;;;;5044117;28;19955;-79
2022/05/04 00:10:16;;;;;;;;;;;9.40;99.90;;;;;;5052397;28;19921;-79
2022/05/04 00:12:46;;;;;;;;;;;9.40;99.90;;;;;;5055577;28;19909;-79
2022/05/04 00:15:14;;;;;;;;;;;9.30;99.90;;;;;;5037340;28;19952;-78
2022/05/04 00:17:41;;;;;;;;;;;9.30;99.90;;;;;;5038475;28;20284;-79
2022/05/04 00:20:09;;;;;;;;;;;9.20;99.90;;;;;;5037565;28;19980;-79
2022/05/04 00:22:36;;;;;;;;;;;9.20;99.90;;;;;;5036430;28;19931;-79
2022/05/04 00:25:04;;;;;;;;;;;9.10;99.90;;;;;;5038205;28;20008;-78
2022/05/04 00:27:31;;;;;;;;;;;9.10;99.90;;;;;;5055653;28;19925;-80
2022/05/04 00:29:59;;;;;;;;;;;9.10;99.90;;;;;;5053798;28;19928;-78
2022/05/04 00:32:28;;;;;;;;;;;9.00;99.90;;;;;;5045169;28;19921;-79
2022/05/04 00:34:55;;;;;;;;;;;9.00;99.90;;;;;;5036808;28;20018;-79
2022/05/04 00:37:22;;;;;;;;;;;9.00;99.90;;;;;;5036481;28;19999;-78
2022/05/04 00:39:49;;;;;;;;;;;8.90;99.90;;;;;;5055683;28;19927;-80
2022/05/04 00:42:17;;;;;;;;;;;8.90;99.90;;;;;;5037666;28;19931;-81
2022/05/04 00:44:47;;;;;;;;;;;8.80;99.90;;;;;;5042532;28;19947;-79
2022/05/04 00:47:14;;;;;;;;;;;8.80;99.90;;;;;;5035335;28;19991;-80
2022/05/04 00:49:43;;;;;;;;;;;8.80;99.90;;;;;;5037357;28;19921;-79
2022/05/04 00:52:13;;;;;;;;;;;8.70;99.90;;;;;;5039399;28;19924;-80
2022/05/04 00:54:40;;;;;;;;;;;8.70;99.90;;;;;;5031841;28;19924;-80
2022/05/04 00:57:07;;;;;;;;;;;8.70;99.90;;;;;;5036845;28;19915;-79
2022/05/04 00:59:36;;;;;;;;;;;8.70;99.90;;;;;;5039077;28;19920;-80
2022/05/04 01:02:03;;;;;;;;;;;8.60;99.90;;;;;;5032730;28;19935;-81
2022/05/04 01:04:30;;;;;;;;;;;7.80;99.90;;;;;;5035658;28;19982;-81
2022/05/04 01:06:58;;;;;;;;;;;8.50;99.90;;;;;;5037227;28;21360;-80
2022/05/04 01:09:25;;;;;;;;;;;8.50;99.90;;;;;;5032165;28;19921;-81
2022/05/04 01:11:52;;;;;;;;;;;8.50;99.90;;;;;;5038815;28;19928;-80
2022/05/04 01:14:19;;;;;;;;;;;8.50;99.90;;;;;;5037297;28;19935;-79
2022/05/04 01:16:48;;;;;;;;;;;8.40;99.90;;;;;;5049565;28;19921;-80
2022/05/04 01:19:15;;;;;;;;;;;8.50;99.90;;;;;;5038691;28;19928;-80
2022/05/04 01:21:42;;;;;;;;;;;8.50;99.90;;;;;;5053631;28;19925;-79
2022/05/04 01:24:10;;;;;;;;;;;8.50;99.90;;;;;;5038120;28;19925;-80
2022/05/04 01:26:37;;;;;;;;;;;8.50;99.90;;;;;;5033607;28;19925;-79
2022/05/04 01:29:05;;;;;;;;;;;8.60;99.90;;;;;;5050452;28;19929;-79
2022/05/04 01:31:33;;;;;;;;;;;8.70;99.90;;;;;;5035372;28;20300;-79
2022/05/04 01:34:06;;;;;;;;;;;8.70;99.90;;;;;;5053528;28;19921;-80
2022/05/04 01:36:33;;;;;;;;;;;8.80;99.90;;;;;;5052482;28;19977;-79
2022/05/04 01:39:00;;;;;;;;;;;8.80;99.90;;;;;;5054882;28;19920;-79
2022/05/04 01:44:14;;;;;;;;;;;8.90;99.90;;;;;;5049454;28;19925;-80
2022/05/04 01:46:41;;;;;;;;;;;8.90;99.90;;;;;;5039335;28;19921;-80
2022/05/04 01:49:08;;;;;;;;;;;8.90;99.90;;;;;;5037686;28;20050;-80
2022/05/04 01:51:35;;;;;;;;;;;8.90;99.90;;;;;;5037771;28;19925;-79
2022/05/04 01:54:02;;;;;;;;;;;8.90;99.90;;;;;;5055564;28;19963;-79
2022/05/04 01:56:30;;;;;;;;;;;8.90;99.90;;;;;;5037918;28;19920;-80
2022/05/04 01:58:57;;;;;;;;;;;8.90;99.90;;;;;;5036808;28;20676;-81
2022/05/04 02:01:24;;;;;;;;;;;8.90;99.90;;;;;;5054506;28;19920;-80
2022/05/04 02:03:55;;;;;;;;;;;8.90;99.90;;;;;;5035649;28;19929;-80
2022/05/04 02:06:23;;;;;;;;;;;8.90;99.90;;;;;;5051883;28;19932;-79
2022/05/04 02:08:50;;;;;;;;;;;8.80;99.90;;;;;;5057002;28;20015;-80
2022/05/04 02:11:17;;;;;;;;;;;8.90;99.90;;;;;;5054138;28;20372;-80
2022/05/04 02:13:46;;;;;;;;;;;8.80;99.90;;;;;;5051115;28;19929;-79
2022/05/04 02:16:13;;;;;;;;;;;8.70;99.90;;;;;;5050012;28;19929;-80
2022/05/04 02:18:40;;;;;;;;;;;8.70;99.90;;;;;;5038550;28;19924;-81
2022/05/04 02:21:08;;;;;;;;;;;8.50;99.90;;;;;;5051285;28;19958;-81
2022/05/04 02:23:35;;;;;;;;;;;8.50;99.90;;;;;;5039173;28;19970;-80
2022/05/04 02:26:02;;;;;;;;;;;8.50;99.90;;;;;;5039830;28;19916;-81
2022/05/04 02:28:29;;;;;;;;;;;8.50;99.90;;;;;;5055681;28;20027;-80
2022/05/04 02:30:58;;;;;;;;;;;8.40;99.90;;;;;;5055444;28;19958;-81
2022/05/04 02:33:25;;;;;;;;;;;8.40;99.90;;;;;;5039381;28;19935;-80
2022/05/04 02:38:36;;;;;;;;;;;8.30;99.90;;;;;;5051299;28;19962;-78
2022/05/04 02:41:03;;;;;;;;;;;8.20;99.90;;;;;;5038346;28;20384;-80
2022/05/04 02:43:30;;;;;;;;;;;8.20;99.90;;;;;;5038276;28;19959;-79
2022/05/04 02:45:59;;;;;;;;;;;8.20;99.90;;;;;;5054116;28;19960;-78
2022/05/04 02:48:26;;;;;;;;;;;8.10;99.90;;;;;;5038628;28;20064;-80
2022/05/04 02:50:53;;;;;;;;;;;8.10;99.90;;;;;;5058211;28;19929;-80
2022/05/04 02:53:20;;;;;;;;;;;8.00;99.90;;;;;;5038724;28;19932;-78
2022/05/04 02:55:47;;;;;;;;;;;8.00;99.90;;;;;;5038690;28;20446;-79
2022/05/04 02:58:18;;;;;;;;;;;8.00;99.90;;;;;;5038380;28;20439;-80
2022/05/04 03:00:45;;;;;;;;;;;8.00;99.90;;;;;;5037890;28;19950;-79
2022/05/04 03:03:12;;;;;;;;;;;7.90;99.90;;;;;;5037367;28;20126;-80
2022/05/04 03:05:40;;;;;;;;;;;7.90;99.90;;;;;;5036524;28;19920;-79
2022/05/04 03:08:07;;;;;;;;;;;7.80;99.90;;;;;;5047701;28;20383;-80
2022/05/04 03:11:54;;;;;;;;;;;7.80;99.90;;;;;;5052835;28;19928;-81
2022/05/04 03:13:21;;;;;;;;;;;7.70;99.90;;;;;;5050600;28;19970;-80
2022/05/04 03:15:48;;;;;;;;;;;7.70;99.90;;;;;;5050807;28;20564;-81
2022/05/04 03:18:16;;;;;;;;;;;7.70;99.90;;;;;;5053726;28;19935;-80
2022/05/04 03:20:43;;;;;;;;;;;7.70;99.90;;;;;;5040493;28;19959;-83
2022/05/04 03:23:10;;;;;;;;;;;7.70;99.90;;;;;;5045122;28;19924;-82
2022/05/04 03:25:37;;;;;;;;;;;7.70;99.90;;;;;;5056252;28;20601;-81
2022/05/04 03:28:04;;;;;;;;;;;7.60;99.90;;;;;;5034675;28;20015;-80
2022/05/04 03:30:31;;;;;;;;;;;7.60;99.90;;;;;;5036404;28;19925;-80
2022/05/04 03:32:58;;;;;;;;;;;7.60;99.90;;;;;;5045550;28;19921;-83
2022/05/04 03:35:27;;;;;;;;;;;7.60;99.90;;;;;;5067000;28;19928;-81
2022/05/04 03:37:53;;;;;;;;;;;7.60;99.90;;;;;;5062666;28;20447;-81
2022/05/04 03:40:20;;;;;;;;;;;7.60;99.90;;;;;;5040416;28;19925;-80
2022/05/04 03:42:47;;;;;;;;;;;7.50;99.90;;;;;;5045408;28;19928;-80
2022/05/04 03:45:14;;;;;;;;;;;7.50;99.90;;;;;;5054142;28;20273;-80
2022/05/04 03:47:42;;;;;;;;;;;7.50;99.90;;;;;;5039525;28;19924;-83
2022/05/04 03:50:09;;;;;;;;;;;7.50;99.90;;;;;;5042114;28;19932;-82
2022/05/04 03:52:38;;;;;;;;;;;7.40;99.90;;;;;;5048466;28;20626;-80
2022/05/04 03:55:05;;;;;;;;;;;7.40;99.90;;;;;;5037178;28;19921;-82
2022/05/04 03:57:32;;;;;;;;;;;7.40;99.90;;;;;;5065131;28;19978;-80
2022/05/04 03:59:59;;;;;;;;;;;7.40;99.90;;;;;;5048290;28;20414;-82
2022/05/04 04:02:36;;;;;;;;;;;7.40;99.90;;;;;;5050437;28;19926;-81
2022/05/04 04:05:03;;;;;;;;;;;7.40;99.90;;;;;;5036550;28;20417;-82
2022/05/04 04:07:30;;;;;;;;;;;7.40;99.90;;;;;;5040748;28;19956;-81
2022/05/04 04:10:01;;;;;;;;;;;7.30;99.90;;;;;;5038929;28;19925;-80
2022/05/04 04:12:28;;;;;;;;;;;7.30;99.90;;;;;;5045781;28;19932;-83
2022/05/04 04:14:55;;;;;;;;;;;7.30;99.90;;;;;;5069149;28;19920;-81
2022/05/04 04:17:22;;;;;;;;;;;7.30;99.90;;;;;;5043130;28;19983;-83
2022/05/04 04:21:50;;;;;;;;;;;7.30;99.90;;;;;;5040283;28;19988;-82
2022/05/04 04:22:35;;;;;;;;;;;7.30;99.90;;;;;;5018777;28;19921;-81
2022/05/04 04:25:07;;;;;;;;;;;7.30;99.90;;;;;;5047911;28;19970;-82
2022/05/04 04:27:35;;;;;;;;;;;7.30;99.90;;;;;;5038051;28;19928;-79
2022/05/04 04:30:02;;;;;;;;;;;7.40;99.90;;;;;;5037096;28;20300;-78
2022/05/04 04:32:29;;;;;;;;;;;7.40;99.90;;;;;;5036263;28;19971;-78
2022/05/04 04:34:56;;;;;;;;;;;7.50;99.90;;;;;;5036749;28;19924;-78
2022/05/04 04:37:23;;;;;;;;;;;7.50;99.90;;;;;;5055050;28;19930;-78
2022/05/04 04:39:49;;;;;;;;;;;7.50;99.90;;;;;;5039078;28;19927;-82
2022/05/04 04:42:18;;;;;;;;;;;7.60;99.90;;;;;;5045267;28;19925;-83
2022/05/04 04:44:45;;;;;;;;;;;7.70;99.90;;;;;;5040803;28;19928;-82
2022/05/04 04:47:12;;;;;;;;;;;7.70;99.90;;;;;;5043719;28;19924;-82
2022/05/04 04:49:39;;;;;;;;;;;7.80;99.90;;;;;;5043839;28;19920;-82
2022/05/04 04:52:06;;;;;;;;;;;7.90;99.90;;;;;;5058709;28;20350;-81
2022/05/04 04:54:33;;;;;;;;;;;8.10;99.90;;;;;;5050471;28;19952;-82
2022/05/04 04:57:03;;;;;;;;;;;8.00;99.90;;;;;;5077159;28;20394;-83
2022/05/04 04:59:32;;;;;;;;;;;8.20;99.90;;;;;;5046939;28;19921;-82
2022/05/04 05:01:59;;;;;;;;;;;8.30;99.90;;;;;;5073597;28;19927;-82
2022/05/04 05:04:26;;;;;;;;;;;8.40;99.90;;;;;;5052179;28;20044;-82
2022/05/04 05:06:52;;;;;;;;;;;8.50;99.90;;;;;;5051350;28;19947;-82
2022/05/04 05:09:19;;;;;;;;;;;8.50;99.90;;;;;;5047069;28;19952;-83
2022/05/04 05:11:46;;;;;;;;;;;8.70;99.90;;;;;;5042784;28;20019;-83
2022/05/04 05:16:59;;;;;;;;;;;8.90;99.90;;;;;;5044617;28;19916;-82
2022/05/04 05:19:26;;;;;;;;;;;9.10;99.90;;;;;;5043198;28;19952;-82
2022/05/04 05:21:53;;;;;;;;;;;9.20;99.90;;;;;;5058956;28;19916;-83
2022/05/04 05:24:20;;;;;;;;;;;9.30;99.90;;;;;;5042632;28;19924;-82
2022/05/04 05:26:47;;;;;;;;;;;9.50;99.90;;;;;;5036883;28;19975;-83
2022/05/04 05:29:13;;;;;;;;;;;9.90;99.90;;;;;;5043086;28;19920;-85
2022/05/04 05:31:42;;;;;;;;;;;9.90;99.90;;;;;;5044561;28;20503;-83
2022/05/04 05:34:11;;;;;;;;;;;10.20;99.90;;;;;;5041462;28;19921;-83
2022/05/04 05:36:38;;;;;;;;;;;10.80;99.90;;;;;;5057969;28;19944;-83
2022/05/04 05:39:05;;;;;;;;;;;11.40;99.90;;;;;;5048248;28;20031;-82
2022/05/04 05:41:32;;;;;;;;;;;12.10;99.90;;;;;;5043304;28;20281;-81
2022/05/04 05:43:59;;;;;;;;;;;12.90;99.90;;;;;;5079741;28;19963;-81
2022/05/04 05:46:26;;;;;;;;;;;13.70;99.90;;;;;;5046135;28;19921;-80
2022/05/04 05:48:52;;;;;;;;;;;14.40;99.90;;;;;;5042580;28;20377;-81
2022/05/04 05:51:21;;;;;;;;;;;15.20;99.90;;;;;;5042000;28;19970;-80
2022/05/04 05:53:47;;;;;;;;;;;15.80;99.90;;;;;;5023088;28;19974;-80
2022/05/04 05:56:14;;;;;;;;;;;16.60;99.90;;;;;;5040967;28;19990;-82
2022/05/04 05:58:41;;;;;;;;;;;16.60;99.90;;;;;;5058010;28;20157;-83
2022/05/04 06:01:08;;;;;;;;;;;17.20;99.90;;;;;;5042944;28;19998;-81
2022/05/04 06:03:35;;;;;;;;;;;17.80;99.90;;;;;;5042561;28;20030;-82
2022/05/04 06:06:02;;;;;;;;;;;18.20;99.90;;;;;;5047239;28;19951;-82
2022/05/04 06:08:31;;;;;;;;;;;18.10;99.90;;;;;;5040702;28;19936;-82
2022/05/04 06:10:58;;;;;;;;;;;18.20;99.90;;;;;;5041143;28;19924;-81
2022/05/04 06:13:24;;;;;;;;;;;18.50;99.90;;;;;;5041941;28;19929;-81
2022/05/04 06:15:51;;;;;;;;;;;19.00;99.90;;;;;;5041330;28;19920;-79
2022/05/04 06:18:18;;;;;;;;;;;19.20;99.90;;;;;;5041587;28;20019;-83
2022/05/04 06:20:45;;;;;;;;;;;19.60;99.90;;;;;;5042632;28;19940;-81
2022/05/04 06:23:12;;;;;;;;;;;20.10;99.90;;;;;;5046605;28;19947;-82
2022/05/04 06:25:42;;;;;;;;;;;20.60;99.90;;;;;;5040953;28;19943;-82
2022/05/04 06:28:09;;;;;;;;;;;20.70;99.90;;;;;;5064803;28;19983;-82
2022/05/04 06:36:09;;;;;;;;;;;20.40;99.80;;;;;;5038869;28;20345;-82
2022/05/04 06:38:37;;;;;;;;;;;20.60;99.90;;;;;;5036296;28;19940;-82
2022/05/04 06:41:06;;;;;;;;;;;20.70;99.90;;;;;;5073897;28;20198;-81
2022/05/04 06:43:34;;;;;;;;;;;21.30;99.00;;;;;;5042960;28;19925;-83
2022/05/04 06:46:02;;;;;;;;;;;21.90;99.40;;;;;;5046062;28;19925;-81
2022/05/04 06:48:29;;;;;;;;;;;22.40;98.50;;;;;;5040123;28;19943;-81
2022/05/04 06:50:57;;;;;;;;;;;22.50;96.30;;;;;;5064539;28;19934;-83
2022/05/04 06:53:24;;;;;;;;;;;22.70;93.90;;;;;;5069046;28;20045;-83
2022/05/04 06:55:51;;;;;;;;;;;22.50;95.00;;;;;;5041910;28;19975;-82
2022/05/04 06:58:19;;;;;;;;;;;22.60;95.20;;;;;;5041428;28;19925;-86
2022/05/04 07:00:46;;;;;;;;;;;22.90;95.20;;;;;;5052199;28;19924;-82
2022/05/04 07:03:13;;;;;;;;;;;23.80;96.40;;;;;;5048647;28;19988;-81
2022/05/04 07:05:41;;;;;;;;;;;24.00;94.60;;;;;;5044709;28;19921;-81
2022/05/04 07:08:08;;;;;;;;;;;23.90;93.40;;;;;;5049265;28;19932;-81
2022/05/04 07:10:36;;;;;;;;;;;24.00;93.90;;;;;;5047280;28;19928;-81
2022/05/04 07:13:06;;;;;;;;;;;24.50;93.20;;;;;;5039673;28;20376;-83
2022/05/04 07:15:35;;;;;;;;;;;25.00;94.00;;;;;;5036728;28;19931;-83
2022/05/04 07:18:04;;;;;;;;;;;25.00;92.20;;;;;;5052089;28;20283;-83
2022/05/04 07:20:31;;;;;;;;;;;25.30;92.40;;;;;;5040398;28;20075;-83
2022/05/04 07:22:58;;;;;;;;;;;25.80;91.10;;;;;;5044787;28;19924;-82
2022/05/04 07:25:25;;;;;;;;;;;26.50;91.20;;;;;;5061251;28;19925;-83
2022/05/04 07:27:52;;;;;;;;;;;26.40;88.80;;;;;;5046690;28;20024;-83
2022/05/04 07:30:19;;;;;;;;;;;26.00;88.10;;;;;;5047454;28;19921;-83
2022/05/04 07:32:47;;;;;;;;;;;25.30;87.00;;;;;;5052438;28;19924;-83
2022/05/04 07:35:14;;;;;;;;;;;24.60;86.80;;;;;;5048641;28;19935;-83
2022/05/04 07:37:42;;;;;;;;;;;23.70;86.30;;;;;;5068635;28;19943;-82
2022/05/04 07:42:54;;;;;;;;;;;21.10;86.80;;;;;;5040620;28;19936;-81
2022/05/04 07:45:21;;;;;;;;;;;20.20;88.70;;;;;;5057885;28;19921;-80
2022/05/04 07:47:50;;;;;;;;;;;20.10;88.90;;;;;;5041658;28;19929;-80
2022/05/04 07:50:17;;;;;;;;;;;19.50;89.20;;;;;;5039935;28;20737;-80
2022/05/04 07:52:44;;;;;;;;;;;19.20;90.20;;;;;;5043037;28;20003;-82
2022/05/04 07:55:11;;;;;;;;;;;18.70;90.30;;;;;;5064062;28;20384;-82
2022/05/04 07:57:38;;;;;;;;;;;18.30;90.40;;;;;;5057264;28;20220;-82
2022/05/04 08:05:40;;;;;;;;;;;19.40;92.70;;;;;;5066661;28;19924;-82
2022/05/04 08:08:08;;;;;;;;;;;19.90;92.40;;;;;;5050569;28;20011;-82
2022/05/04 08:10:35;;;;;;;;;;;20.90;93.20;;;;;;5047555;28;20515;-82
2022/05/04 08:13:02;;;;;;;;;;;22.10;93.30;;;;;;5045922;28;19928;-82
2022/05/04 08:15:30;;;;;;;;;;;22.90;92.10;;;;;;5046767;28;19924;-83
2022/05/04 08:18:01;;;;;;;;;;;23.20;90.90;;;;;;5026897;28;19981;-81
2022/05/04 08:20:29;;;;;;;;;;;23.70;91.20;;;;;;5040424;28;19978;-80
2022/05/04 08:22:56;;;;;;;;;;;24.60;91.40;;;;;;5045869;28;20032;-81
2022/05/04 08:25:23;;;;;;;;;;;25.30;90.10;;;;;;5043570;28;19925;-81
2022/05/04 08:27:50;;;;;;;;;;;25.30;89.20;;;;;;5057559;28;19916;-82
2022/05/04 08:30:17;;;;;;;;;;;25.70;90.10;;;;;;5046602;28;19925;-82
2022/05/04 08:32:44;;;;;;;;;;;26.30;89.60;;;;;;5047651;28;19908;-82
2022/05/04 08:35:13;;;;;;;;;;;26.70;88.60;;;;;;5056532;28;19924;-81
2022/05/04 08:37:40;;;;;;;;;;;27.30;86.60;;;;;;5047427;28;19937;-82
2022/05/04 08:40:09;;;;;;;;;;;27.70;86.20;;;;;;5045954;28;19939;-82
2022/05/04 08:42:39;;;;;;;;;;;28.00;83.40;;;;;;5063620;28;19951;-81
2022/05/04 08:45:09;;;;;;;;;;;26.70;82.80;;;;;;5083803;28;19908;-82
2022/05/04 08:47:37;;;;;;;;;;;26.60;81.20;;;;;;5066589;28;19920;-81
2022/05/04 08:50:08;;;;;;;;;;;26.60;82.70;;;;;;5059412;28;20488;-82
2022/05/04 08:52:38;;;;;;;;;;;26.90;81.00;;;;;;5056140;28;19995;-82
2022/05/04 08:55:05;;;;;;;;;;;27.10;80.90;;;;;;5041401;28;19925;-82
2022/05/04 08:57:32;;;;;;;;;;;27.50;81.50;;;;;;5025398;28;19975;-82
2022/05/04 08:59:59;;;;;;;;;;;27.50;81.10;;;;;;5030679;28;19924;-82
2022/05/04 09:02:27;;;;;;;;;;;27.60;79.90;;;;;;5062877;28;19943;-81
2022/05/04 09:04:53;;;;;;;;;;;26.40;79.30;;;;;;5063459;28;19924;-81
2022/05/04 09:07:21;;;;;;;;;;;26.50;77.80;;;;;;5064244;28;20015;-81
2022/05/04 09:09:51;;;;;;;;;;;25.70;77.30;;;;;;5048676;28;19964;-81
2022/05/04 09:12:18;;;;;;;;;;;24.90;77.60;;;;;;5056079;28;19909;-81
2022/05/04 09:14:47;;;;;;;;;;;24.00;81.90;;;;;;5049764;28;20208;-81
2022/05/04 09:17:15;;;;;;;;;;;24.10;82.40;;;;;;5048998;28;19980;-82
2022/05/04 09:20:45;;;;;;;;;;;24.90;82.30;;;;;;5048202;28;19931;-82
2022/05/04 09:22:41;;;;;;;;;;;25.10;82.10;;;;;;5048750;28;19954;-82
2022/05/04 09:25:14;;;;;;;;;;;25.30;81.20;;;;;;5047513;28;19932;-82
2022/05/04 09:27:41;;;;;;;;;;;25.30;80.10;;;;;;5048102;28;19984;-82
2022/05/04 09:30:09;;;;;;;;;;;25.00;79.70;;;;;;5065772;28;19927;-81
2022/05/04 09:32:44;;;;;;;;;;;24.70;79.70;;;;;;5050770;28;19909;-81
2022/05/04 09:35:14;;;;;;;;;;;24.60;81.10;;;;;;5068451;28;19920;-82
2022/05/04 09:46:03;;;;;;;;;;;23.70;78.50;;;;;;5061412;28;19920;-81
2022/05/04 09:48:30;;;;;;;;;;;23.30;78.80;;;;;;5064144;28;19929;-80
2022/05/04 09:50:58;;;;;;;;;;;22.70;79.20;;;;;;5051772;28;19921;-82
2022/05/04 09:53:26;;;;;;;;;;;22.30;79.80;;;;;;5071409;28;20196;-81
2022/05/04 09:55:59;;;;;;;;;;;21.60;79.20;;;;;;5062418;28;19924;-82
2022/05/04 09:58:26;;;;;;;;;;;21.30;80.00;;;;;;5067163;28;19967;-80
2022/05/04 10:00:59;;;;;;;;;;;20.30;81.80;;;;;;5045177;28;19991;-81
2022/05/04 10:03:26;;;;;;;;;;;20.30;82.70;;;;;;5049868;28;20407;-81
2022/05/04 10:05:55;;;;;;;;;;;20.10;82.50;;;;;;5047507;28;19924;-82
2022/05/04 10:08:22;;;;;;;;;;;20.00;83.50;;;;;;5035659;28;19921;-80
2022/05/04 10:10:51;;;;;;;;;;;19.80;84.10;;;;;;5059588;28;19947;-81
2022/05/04 10:13:21;;;;;;;;;;;19.70;84.30;;;;;;5041800;28;20339;-81
2022/05/04 10:15:51;;;;;;;;;;;19.70;84.10;;;;;;5060065;28;19935;-81
2022/05/04 10:18:21;;;;;;;;;;;19.70;85.60;;;;;;5053114;28;19999;-80
2022/05/04 10:20:50;;;;;;;;;;;19.70;85.20;;;;;;5046567;28;20404;-80
2022/05/04 10:23:19;;;;;;;;;;;19.60;84.20;;;;;;5059175;28;20427;-80
2022/05/04 10:25:46;;;;;;;;;;;19.40;85.10;;;;;;5064517;28;20350;-81
2022/05/04 10:28:14;;;;;;;;;;;19.40;85.70;;;;;;5043127;28;20360;-80
2022/05/04 10:30:46;;;;;;;;;;;19.50;86.50;;;;;;5055584;28;19931;-79
2022/05/04 10:33:14;;;;;;;;;;;19.60;86.80;;;;;;5049242;28;19923;-80
2022/05/04 10:35:42;;;;;;;;;;;19.70;85.50;;;;;;5048240;28;20007;-80
2022/05/04 10:38:19;;;;;;;;;;;19.70;86.30;;;;;;5049855;28;19936;-81
2022/05/04 10:40:53;;;;;;;;;;;19.70;86.10;;;;;;5067347;28;19924;-79
2022/05/04 10:43:34;;;;;;;;;;;19.60;86.50;;;;;;5052534;28;19936;-79
2022/05/04 10:46:05;;;;;;;;;;;19.60;85.30;;;;;;5038799;28;19925;-79
2022/05/04 10:48:36;;;;;;;;;;;19.60;86.50;;;;;;5045471;28;19920;-78
2022/05/04 10:51:05;;;;;;;;;;;19.60;86.10;;;;;;5044201;28;19924;-80
2022/05/04 10:53:41;;;;;;;;;;;19.70;85.90;;;;;;5042984;28;19928;-80
2022/05/04 10:56:09;;;;;;;;;;;19.80;86.10;;;;;;5037577;28;19925;-81
2022/05/04 10:58:43;;;;;;;;;;;19.90;86.90;;;;;;5062128;28;19951;-80
2022/05/04 11:01:13;;;;;;;;;;;20.00;86.50;;;;;;5063723;28;19920;-81
2022/05/04 11:03:51;;;;;;;;;;;20.00;85.30;;;;;;5055032;28;19950;-81
2022/05/04 11:06:25;;;;;;;;;;;19.70;84.60;;;;;;5041594;28;20376;-81
2022/05/04 11:08:54;;;;;;;;;;;19.70;85.10;;;;;;5043736;28;19924;-81
2022/05/04 11:11:22;;;;;;;;;;;19.70;85.70;;;;;;5050483;28;19942;-82
2022/05/04 11:13:49;;;;;;;;;;;19.80;85.20;;;;;;5044912;28;19920;-80
2022/05/04 11:16:16;;;;;;;;;;;19.90;85.20;;;;;;5043190;28;19943;-80
2022/05/04 11:18:45;;;;;;;;;;;19.90;85.70;;;;;;5061573;28;19947;-82
2022/05/04 11:21:14;;;;;;;;;;;20.00;85.30;;;;;;5043196;28;19920;-81
2022/05/04 11:23:45;;;;;;;;;;;19.90;84.60;;;;;;5043046;28;19947;-81
2022/05/04 11:26:17;;;;;;;;;;;19.90;84.90;;;;;;5030444;28;20027;-82
2022/05/04 11:28:43;;;;;;;;;;;19.90;85.40;;;;;;5044727;28;19940;-82
2022/05/04 11:31:11;;;;;;;;;;;20.00;84.40;;;;;;5061188;28;20307;-83
2022/05/04 11:33:38;;;;;;;;;;;20.00;85.30;;;;;;5044986;28;20323;-82
2022/05/04 11:36:06;;;;;;;;;;;20.10;83.90;;;;;;5040592;28;20495;-83
2022/05/04 11:38:35;;;;;;;;;;;20.10;84.00;;;;;;5060636;28;19920;-82
2022/05/04 11:41:05;;;;;;;;;;;20.20;84.10;;;;;;5067733;28;19925;-81
2022/05/04 11:43:34;;;;;;;;;;;20.40;84.20;;;;;;5042674;28;19924;-82
2022/05/04 11:46:06;;;;;;;;;;;20.50;84.20;;;;;;5049217;28;19979;-82
2022/05/04 11:48:33;;;;;;;;;;;20.60;83.50;;;;;;5058480;28;19978;-82
2022/05/04 11:51:00;;;;;;;;;;;20.70;83.90;;;;;;5044533;28;19925;-82
2022/05/04 11:53:27;;;;;;;;;;;20.90;83.40;;;;;;5042674;28;19925;-82
2022/05/04 11:55:55;;;;;;;;;;;20.90;82.50;;;;;;5041877;28;19978;-81
2022/05/04 11:58:25;;;;;;;;;;;20.90;82.10;;;;;;5043246;28;19926;-84
2022/05/04 12:00:52;;;;;;;;;;;20.90;80.50;;;;;;5040529;28;19927;-83
2022/05/04 12:03:19;;;;;;;;;;;20.90;80.50;;;;;;5064386;28;19924;-82
2022/05/04 12:05:47;;;;;;;;;;;20.80;80.20;;;;;;5045805;28;19909;-83
2022/05/04 12:08:14;;;;;;;;;;;20.70;79.60;;;;;;5049183;28;19908;-82
2022/05/04 12:10:42;;;;;;;;;;;20.60;79.30;;;;;;5052758;28;19935;-82
2022/05/04 12:13:10;;;;;;;;;;;20.60;80.00;;;;;;5028601;28;19940;-80
2022/05/04 12:15:39;;;;;;;;;;;20.70;79.90;;;;;;5057673;28;19936;-82
2022/05/04 12:18:07;;;;;;;;;;;20.60;79.10;;;;;;5057404;28;19920;-79
2022/05/04 12:20:34;;;;;;;;;;;20.30;78.50;;;;;;5048025;28;19924;-81
2022/05/04 12:23:04;;;;;;;;;;;20.40;79.00;;;;;;5046958;28;20387;-81
2022/05/04 12:25:31;;;;;;;;;;;20.80;78.90;;;;;;5062972;28;19921;-82
2022/05/04 12:27:59;;;;;;;;;;;20.80;78.30;;;;;;5047122;28;19959;-81
2022/05/04 12:33:12;;;;;;;;;;;20.70;78.70;;;;;;5060534;28;19931;-82
2022/05/04 12:35:42;;;;;;;;;;;20.80;79.80;;;;;;5045449;28;19924;-82
2022/05/04 12:38:09;;;;;;;;;;;20.90;79.40;;;;;;5051993;28;19995;-80
2022/05/04 12:40:39;;;;;;;;;;;21.30;78.80;;;;;;5046497;28;20040;-81
2022/05/04 12:43:07;;;;;;;;;;;21.30;78.60;;;;;;5046601;28;19932;-80
2022/05/04 12:45:38;;;;;;;;;;;21.60;78.90;;;;;;5049268;28;19925;-81
2022/05/04 12:48:06;;;;;;;;;;;21.50;78.60;;;;;;5065604;28;19924;-79
2022/05/04 12:50:33;;;;;;;;;;;21.30;77.30;;;;;;5048388;28;20015;-79
2022/05/04 12:53:01;;;;;;;;;;;21.20;78.20;;;;;;5052108;28;20364;-82
2022/05/04 12:58:09;;;;;;;;;;;21.40;78.20;;;;;;5049607;28;19927;-81
2022/05/04 13:00:37;;;;;;;;;;;21.70;78.40;;;;;;5049712;28;19919;-81
2022/05/04 13:03:07;;;;;;;;;;;21.80;77.80;;;;;;5048741;28;19921;-80
2022/05/04 13:05:34;;;;;;;;;;;22.00;78.40;;;;;;5048547;28;19921;-82
2022/05/04 13:08:03;;;;;;;;;;;22.10;77.30;;;;;;5067268;28;20339;-80
2022/05/04 13:10:30;;;;;;;;;;;22.10;76.00;;;;;;5067846;28;19925;-80
2022/05/04 13:12:57;;;;;;;;;;;22.10;76.60;;;;;;5052087;28;20112;-80
2022/05/04 13:15:24;;;;;;;;;;;22.20;76.30;;;;;;5053039;28;19926;-76
2022/05/04 13:17:53;;;;;;;;;;;22.20;76.20;;;;;;5057686;28;19916;-81
2022/05/04 13:20:20;;;;;;;;;;;22.30;76.50;;;;;;5069711;28;19979;-80
2022/05/04 13:22:47;;;;;;;;;;;22.50;77.70;;;;;;5051931;28;19921;-79
2022/05/04 13:25:15;;;;;;;;;;;22.60;76.90;;;;;;5051043;28;19981;-80
2022/05/04 13:27:42;;;;;;;;;;;22.70;77.40;;;;;;5051925;28;20437;-78
2022/05/04 13:30:11;;;;;;;;;;;22.70;77.20;;;;;;5051055;28;19920;-78
2022/05/04 13:32:38;;;;;;;;;;;22.80;77.60;;;;;;5052026;28;19924;-80
2022/05/04 13:35:07;;;;;;;;;;;22.90;76.40;;;;;;5051648;28;19920;-80
2022/05/04 13:37:34;;;;;;;;;;;22.90;76.60;;;;;;5047655;28;19917;-80
2022/05/04 13:40:01;;;;;;;;;;;23.00;75.70;;;;;;5047211;28;19943;-79
2022/05/04 13:42:28;;;;;;;;;;;23.00;75.40;;;;;;5064270;28;20030;-79
2022/05/04 13:44:55;;;;;;;;;;;22.50;74.80;;;;;;5047014;28;20018;-79
2022/05/04 13:47:22;;;;;;;;;;;22.50;75.30;;;;;;5047990;28;19920;-80
2022/05/04 13:49:49;;;;;;;;;;;22.20;75.40;;;;;;5048135;28;19921;-80
2022/05/04 13:55:04;;;;;;;;;;;22.20;77.20;;;;;;5060974;28;19929;-80
2022/05/04 13:57:31;;;;;;;;;;;22.20;76.80;;;;;;5044523;28;19929;-81
2022/05/04 13:59:59;;;;;;;;;;;22.20;77.10;;;;;;5045620;28;20019;-82
2022/05/04 14:02:27;;;;;;;;;;;22.10;77.60;;;;;;5051811;28;19931;-80
2022/05/04 14:04:54;;;;;;;;;;;22.10;77.60;;;;;;5043729;28;19928;-81
2022/05/04 14:07:22;;;;;;;;;;;22.20;78.00;;;;;;5061680;28;19971;-80
2022/05/04 14:09:49;;;;;;;;;;;22.10;77.50;;;;;;5043492;28;20391;-80
2022/05/04 14:12:16;;;;;;;;;;;22.00;78.10;;;;;;5043690;28;20272;-81
2022/05/04 14:15:03;;;;;;;;;;;21.60;77.60;;;;;;5044969;28;19978;-82
2022/05/04 14:17:31;;;;;;;;;;;21.60;77.40;;;;;;5044396;28;19920;-80
2022/05/04 14:23:27;;;;;;;;;;;21.70;79.10;;;;;;5062422;28;19916;-80
2022/05/04 14:25:54;;;;;;;;;;;22.10;78.20;;;;;;5045105;28;19921;-80
2022/05/04 14:28:28;;;;;;;;;;;22.10;77.40;;;;;;5043817;28;20005;-80
2022/05/04 14:30:55;;;;;;;;;;;22.20;78.10;;;;;;5044370;28;19920;-80
2022/05/04 14:33:23;;;;;;;;;;;22.40;77.60;;;;;;5044594;28;19927;-80
2022/05/04 14:35:50;;;;;;;;;;;22.40;77.40;;;;;;5044602;28;19956;-80
2022/05/04 14:38:17;;;;;;;;;;;22.40;78.00;;;;;;5061337;28;19933;-80
2022/05/04 14:40:46;;;;;;;;;;;22.50;78.00;;;;;;5042856;28;19928;-81
2022/05/04 14:43:13;;;;;;;;;;;22.60;77.80;;;;;;5043385;28;19921;-81
2022/05/04 14:45:40;;;;;;;;;;;22.70;77.40;;;;;;5043012;28;19988;-81
2022/05/04 14:48:07;;;;;;;;;;;22.70;77.40;;;;;;5043434;28;19920;-80
2022/05/04 14:50:36;;;;;;;;;;;22.70;78.10;;;;;;5042978;28;19921;-80
2022/05/04 14:53:03;;;;;;;;;;;22.80;77.50;;;;;;5042367;28;19916;-79
2022/05/04 14:55:29;;;;;;;;;;;22.70;76.70;;;;;;5059210;28;19927;-79
2022/05/04 14:57:58;;;;;;;;;;;22.70;76.70;;;;;;5043082;28;19928;-79
2022/05/04 15:00:26;;;;;;;;;;;22.50;75.90;;;;;;5042318;28;20300;-81
2022/05/04 15:05:38;;;;;;;;;;;22.50;76.60;;;;;;5038994;28;19971;-81
2022/05/04 15:08:06;;;;;;;;;;;22.40;75.50;;;;;;5060500;28;19921;-82
2022/05/04 15:10:33;;;;;;;;;;;22.10;76.10;;;;;;5049576;28;20016;-82